METAR AND TAF INFORMATION
METAR FOR LMML
ADDS - METARS form results

(0623 UTC 27 April 2018)
Data provider http://aviationweather.gov/adds/metars/
 
METAR text: LMML 270615Z 09015KT CAVOK 19/15 Q1008 NOSIG
Conditions at: LMML (LUQA/MALTA , MT) observed 0615 UTC 27 April 2018
Temperature: 19.0°C (66°F)
Dewpoint: 15.0°C (59°F) [RH = 78%]
Pressure (altimeter): 29.76 inches Hg (1008.0 mb)
Winds: from the E (90 degrees) at 17 MPH (15 knots; 7.8 m/s)
Visibility: 6 or more miles (10+ km)
Ceiling: ceiling and visibility are OK
Clouds: unknown
Weather: no significant weather observed at this time

METAR text: LMML 270545Z 08013KT CAVOK 18/15 Q1008 NOSIG
Conditions at: LMML (LUQA/MALTA , MT) observed 0545 UTC 27 April 2018
Temperature: 18.0°C (64°F)
Dewpoint: 15.0°C (59°F) [RH = 83%]
Pressure (altimeter): 29.76 inches Hg (1008.0 mb)
Winds: from the E (80 degrees) at 15 MPH (13 knots; 6.8 m/s)
Visibility: 6 or more miles (10+ km)
Ceiling: ceiling and visibility are OK
Clouds: unknown
Weather: no significant weather observed at this time

Forecast for: LMML (LUQA/MALTA , MT)
Text: TAF LMML 270500Z 2706/2806 09018KT 9999 FEW012
Forecast period: 0600 UTC 27 April 2018 to 0600 UTC 28 April 2018
Forecast type: FROM: standard forecast or significant change
Winds: from the E (90 degrees) at 21 MPH (18 knots; 9.4 m/s)
Visibility: 6 or more miles (10+ km)
Clouds: few clouds at 1200 feet AGL
Weather: no significant weather forecast for this period
Forecast for: LMML (LUQA/MALTA , MT)
Text: TAF LMML 270500Z 2706/2806 09018KT 9999 FEW012
Forecast period: 0600 UTC 27 April 2018 to 0600 UTC 28 April 2018
Forecast type: FROM: standard forecast or significant change
Winds: from the E (90 degrees) at 21 MPH (18 knots; 9.4 m/s)
Visibility: 6 or more miles (10+ km)
Clouds: few clouds at 1200 feet AGL
Weather: no significant weather forecast for this period
Forecast for: LMML (LUQA/MALTA , MT)
Text: TAF LMML 270500Z 2706/2806 09018KT 9999 FEW012
Forecast period: 0600 UTC 27 April 2018 to 0600 UTC 28 April 2018
Forecast type: TEMPORARY: The following changes expected for less than half the time period
Winds: from the E (90 degrees) at 21 MPH (18 knots; 9.4 m/s)
gusting to 32 MPH (28 knots; 14.6 m/s)
Weather: no significant weather forecast for this period
Forecast for: LMML (LUQA/MALTA , MT)
Text: TAF LMML 270500Z 2706/2806 09018KT 9999 FEW012
Forecast period: 0600 UTC 27 April 2018 to 0600 UTC 28 April 2018
Forecast type: TEMPORARY: The following changes expected for less than half the time period
Winds: from the E (90 degrees) at 21 MPH (18 knots; 9.4 m/s)
gusting to 32 MPH (28 knots; 14.6 m/s)
Weather: no significant weather forecast for this period
Forecast for: LMML (LUQA/MALTA , MT)
Text: TAF LMML 270500Z 2706/2806 09018KT 9999 FEW012
Forecast period: 0600 to 1100 UTC 27 April 2018
Forecast type: PROBABLE: 30 percent likelihood of the following during this time
Visibility: 6 miles (9 km)
Weather: SHRA  (rain showers)
Forecast for: LMML (LUQA/MALTA , MT)
Text: TAF LMML 270500Z 2706/2806 09018KT 9999 FEW012
Forecast period: 0600 to 1100 UTC 27 April 2018
Forecast type: PROBABLE: 30 percent likelihood of the following during this time
Visibility: 6 miles (9 km)
Weather: SHRA  (rain showers)
Forecast for: LMML (LUQA/MALTA , MT)
Text: TAF LMML 270500Z 2706/2806 09018KT 9999 FEW012
Forecast period: 2000 UTC 27 April 2018 to 0600 UTC 28 April 2018
Forecast type: TEMPORARY: The following changes expected for less than half the time period
Visibility: 5 miles (8 km)
Ceiling: 1200 feet AGL
Clouds: broken clouds at 1200 feet AGL
Weather: SHRA  (rain showers)
Forecast for: LMML (LUQA/MALTA , MT)
Text: TAF LMML 270500Z 2706/2806 09018KT 9999 FEW012
Forecast period: 2000 UTC 27 April 2018 to 0600 UTC 28 April 2018
Forecast type: TEMPORARY: The following changes expected for less than half the time period
Visibility: 5 miles (8 km)
Ceiling: 1200 feet AGL
Clouds: broken clouds at 1200 feet AGL
Weather: SHRA  (rain showers)
Forecast for: LMML (LUQA/MALTA , MT)
Text: TAF LMML 270500Z 2706/2806 09018KT 9999 FEW012
Forecast period: 2000 UTC 27 April 2018 to 0600 UTC 28 April 2018
Forecast type: PROBABLE: 30 percent likelihood of the following during this time
Visibility: 3 miles (5 km)
Ceiling: 600 feet AGL
Clouds: broken clouds at 600 feet AGL
broken clouds at 9000 feet AGL
Weather: TSRA  (rain associated with thunderstorm(s))
Forecast for: LMML (LUQA/MALTA , MT)
Text: TAF LMML 270500Z 2706/2806 09018KT 9999 FEW012
Forecast period: 2000 UTC 27 April 2018 to 0600 UTC 28 April 2018
Forecast type: PROBABLE: 30 percent likelihood of the following during this time
Visibility: 3 miles (5 km)
Ceiling: 600 feet AGL
Clouds: broken clouds at 600 feet AGL
broken clouds at 9000 feet AGL
Weather: TSRA  (rain associated with thunderstorm(s))

 AIRPORT MAP

 RUNWAY INFORMATION
Runway 05 Runway length 7799 ft Runway width 148 ft
Runway elevation 297 ft Runway displaced threshold 0 ft Runway heading 56
Runway 23 Runway length 7799 ft Runway width 148 ft
Runway elevation 247 ft Runway displaced threshold 0 ft Runway heading 236
Runway 13 Runway length 11627 ft Runway width 197 ft
Runway elevation 256 ft Runway displaced threshold 0 ft Runway heading 135
Runway 31 Runway length 11627 ft Runway width 197 ft
Runway elevation 230 ft Runway displaced threshold 620 ft Runway heading 315

 AIRPORT FREQUENCIES
Type APP Name APP Frequency 128.15 MHZ
Type Distance R Name Frequency 130.975 MHZ
Type Ground Name Ground Frequency 121.6 MHZ
Type Leaving Name Frequency 123.625 MHZ
Type Runway Name Runway Frequency 138.1 MHZ
Type Volmet Name Frequency 126.8 MHZ
Type Weather Name WX Frequency 127.4 MHZ

 AIRPORT NEAR NAVIGATION AIDS
Type DME Name Malta Frequency 110500 KHZ
Type DME Name Luqa Frequency 109700 KHZ
Type NDB Name Luqa Frequency 416 KHZ
Type NDB Name Malta Frequency 395 KHZ